Berlin, Germany
Current Conditions -  °F | °C
As of 9:50 PM on Thursday 18 Dec 2014 (Local Time) from EDDT Reporting Station
Light Rain Light Rain  
Wind Chill: 52°   Ceiling: 900
Heat Index: 52°   Visibility: 6mi
Dew Point: 50°   Wind: 20mph
Humidity: 94%   Direction: 230°SW
Pressure: 29.68"   Gusts: 31mph
Location:  52.52°N, 13.41°E
Report Text: EDDT 182050Z 23017G27KT 9999 -RA FEW008 BKN009 11/10 Q1005 TEMPO 24015G25KT
Loading
Personal Weather Stations






























Interactive Weather Map New forecast layout! Learn more

10-Day Weather Forecast

Advertisements
Track Severe Weather on mobile